Time;durP1;ratioP1;P1;durP2;ratioP2;P2;SDS_P1;SDS_P2;PMS_P1;PMS_P2;Temp;Humidity;BMP_temperature;BMP_pressure;BME280_temperature;BME280_humidity;BME280_pressure;Samples;Min_cycle;Max_cycle;Signal;HPM_P1;HPM_P2
2021/01/18 00:00:21;;;;;;;6.03;3.17;;;;;;;3.76;100.00;98789.63;5030992;28;20218;-71
2021/01/18 00:02:49;;;;;;;9.10;3.57;;;;;;;3.71;100.00;98791.03;5030010;28;20260;-70
2021/01/18 00:05:16;;;;;;;6.37;3.13;;;;;;;3.68;100.00;98791.28;5027415;28;20601;-70
2021/01/18 00:07:44;;;;;;;7.33;3.03;;;;;;;3.78;100.00;98798.25;5032249;28;20702;-69
2021/01/18 00:10:13;;;;;;;8.03;3.23;;;;;;;3.70;100.00;98791.97;5030588;28;20207;-70
2021/01/18 00:12:42;;;;;;;6.03;2.83;;;;;;;3.69;100.00;98795.59;5030903;28;20204;-69
2021/01/18 00:15:10;;;;;;;7.33;3.50;;;;;;;3.84;100.00;98792.41;5029423;28;20220;-69
2021/01/18 00:17:37;;;;;;;6.00;3.07;;;;;;;3.82;100.00;98789.06;5030814;28;20617;-71
2021/01/18 00:20:06;;;;;;;4.73;3.03;;;;;;;3.64;100.00;98787.25;5030268;28;20267;-70
2021/01/18 00:22:36;;;;;;;6.33;2.90;;;;;;;3.72;100.00;98780.31;5025561;28;20209;-70
2021/01/18 00:25:04;;;;;;;5.10;3.17;;;;;;;3.76;100.00;98781.69;5031252;28;20281;-71
2021/01/18 00:27:31;;;;;;;5.57;3.30;;;;;;;3.76;100.00;98784.34;5028349;28;20204;-70
2021/01/18 00:29:57;;;;;;;5.67;2.97;;;;;;;3.75;100.00;98782.69;5029365;28;20211;-70
2021/01/18 00:32:24;;;;;;;5.93;3.07;;;;;;;3.81;100.00;98783.94;5030457;28;20214;-71
2021/01/18 00:34:51;;;;;;;3.57;2.47;;;;;;;3.71;100.00;98778.66;5030474;28;20231;-70
2021/01/18 00:37:19;;;;;;;4.33;2.43;;;;;;;3.77;100.00;98779.91;5030419;28;20659;-71
2021/01/18 00:39:45;;;;;;;3.97;2.50;;;;;;;3.72;100.00;98777.66;5030842;28;20204;-69
2021/01/18 00:42:18;;;;;;;4.73;2.33;;;;;;;3.78;100.00;98773.66;5029831;28;20258;-70
2021/01/18 00:44:46;;;;;;;4.57;2.47;;;;;;;3.75;100.00;98776.56;5028384;28;20684;-71
2021/01/18 00:47:12;;;;;;;5.67;2.67;;;;;;;3.67;100.00;98773.81;5029973;28;20332;-70
2021/01/18 00:49:39;;;;;;;4.20;2.70;;;;;;;3.65;100.00;98776.56;5030880;28;20608;-71
2021/01/18 00:52:06;;;;;;;6.33;2.60;;;;;;;3.56;100.00;98773.94;5029959;28;20324;-69
2021/01/18 00:54:34;;;;;;;3.77;1.93;;;;;;;3.59;100.00;98765.72;5030638;28;20706;-71
2021/01/18 00:57:01;;;;;;;4.60;2.30;;;;;;;3.49;100.00;98765.75;5029649;28;20702;-70
2021/01/18 00:59:28;;;;;;;4.77;1.90;;;;;;;3.47;100.00;98775.59;5028697;28;20692;-71
2021/01/18 01:01:54;;;;;;;6.17;2.77;;;;;;;3.39;100.00;98770.19;5028423;28;20680;-70
2021/01/18 01:04:21;;;;;;;4.63;2.57;;;;;;;3.19;100.00;98779.03;5030098;28;20846;-70
2021/01/18 01:06:48;;;;;;;2.80;1.93;;;;;;;3.27;100.00;98783.63;5029140;28;20210;-69
2021/01/18 01:09:15;;;;;;;5.53;2.63;;;;;;;3.19;100.00;98784.31;5028932;28;20206;-70
2021/01/18 01:11:46;;;;;;;4.03;2.23;;;;;;;3.13;100.00;98776.09;5026731;28;20255;-70
2021/01/18 01:14:13;;;;;;;3.80;2.00;;;;;;;3.10;100.00;98779.84;5029003;28;20217;-70
2021/01/18 01:16:42;;;;;;;7.20;2.00;;;;;;;3.09;100.00;98782.59;5030124;28;20210;-70
2021/01/18 01:19:09;;;;;;;3.80;1.97;;;;;;;3.10;100.00;98777.22;5029423;28;20251;-70
2021/01/18 01:21:36;;;;;;;4.13;2.00;;;;;;;3.03;100.00;98775.25;5029909;28;20209;-71
2021/01/18 01:24:03;;;;;;;2.23;1.80;;;;;;;2.90;100.00;98772.03;5029766;28;20222;-69
2021/01/18 01:26:30;;;;;;;2.80;1.60;;;;;;;2.87;100.00;98775.78;5026709;28;20222;-70
2021/01/18 01:28:58;;;;;;;3.00;1.63;;;;;;;3.01;100.00;98774.56;5029805;28;20693;-71
2021/01/18 01:31:25;;;;;;;2.13;1.47;;;;;;;2.99;100.00;98771.19;5033317;28;20210;-71
2021/01/18 01:33:51;;;;;;;3.73;2.00;;;;;;;2.86;100.00;98776.75;5033584;28;20209;-70
2021/01/18 01:36:18;;;;;;;3.93;1.93;;;;;;;2.96;100.00;98789.94;5034397;28;20223;-70
2021/01/18 01:38:45;;;;;;;4.63;2.00;;;;;;;2.88;100.00;98785.34;5034094;28;20229;-70
2021/01/18 01:41:12;;;;;;;2.90;1.70;;;;;;;2.87;100.00;98790.75;5032468;28;20677;-71
2021/01/18 01:43:39;;;;;;;3.40;1.90;;;;;;;2.94;100.00;98799.78;5032860;28;20203;-71
2021/01/18 01:46:06;;;;;;;6.33;1.83;;;;;;;3.03;100.00;98797.19;5033493;28;20658;-70
2021/01/18 01:48:33;;;;;;;5.07;2.13;;;;;;;3.13;100.00;98805.09;5032467;28;20202;-70
2021/01/18 01:51:00;;;;;;;3.20;2.07;;;;;;;2.96;100.00;98806.59;5032331;28;20214;-71
2021/01/18 01:53:30;;;;;;;4.13;2.37;;;;;;;3.17;100.00;98799.44;5033592;28;20534;-70
2021/01/18 01:55:58;;;;;;;2.77;1.80;;;;;;;3.38;100.00;98799.31;5031125;28;20239;-71
2021/01/18 01:58:25;;;;;;;3.07;1.77;;;;;;;3.51;100.00;98792.00;5033104;28;20199;-70
2021/01/18 02:00:54;;;;;;;3.90;1.93;;;;;;;3.21;100.00;98805.28;5032660;28;20625;-69
2021/01/18 02:03:31;;;;;;;2.50;1.70;;;;;;;3.44;100.00;98804.91;5033306;28;20253;-70
2021/01/18 02:05:58;;;;;;;4.77;1.60;;;;;;;3.49;100.00;98810.59;5032190;28;20914;-70
2021/01/18 02:08:25;;;;;;;6.63;2.40;;;;;;;3.42;100.00;98806.00;5032885;28;20238;-71
2021/01/18 02:10:52;;;;;;;2.83;2.03;;;;;;;3.54;100.00;98812.81;5031422;28;20726;-71
2021/01/18 02:13:26;;;;;;;2.70;2.27;;;;;;;3.51;100.00;98811.28;5032979;28;20625;-70
2021/01/18 02:15:59;;;;;;;2.67;1.77;;;;;;;3.59;100.00;98806.16;5031880;28;20218;-70
2021/01/18 02:18:45;;;;;;;3.17;2.03;;;;;;;3.48;100.00;98811.56;5032479;28;20202;-70
2021/01/18 02:21:59;;;;;;;3.27;2.27;;;;;;;3.53;100.00;98812.00;5032405;28;20206;-70
2021/01/18 02:25:03;;;;;;;3.20;2.20;;;;;;;3.47;100.00;98812.56;5027609;28;20226;-71
2021/01/18 02:28:15;;;;;;;5.03;2.30;;;;;;;3.47;100.00;98806.44;5030632;28;20689;-70
2021/01/18 02:31:07;;;;;;;3.53;2.10;;;;;;;3.46;100.00;98818.78;4965199;28;20212;-71
2021/01/18 02:34:11;;;;;;;5.60;2.67;;;;;;;3.49;100.00;98817.66;4963993;28;20204;-71
2021/01/18 02:36:48;;;;;;;5.07;2.83;;;;;;;3.65;100.00;98826.72;5024790;28;20593;-70
2021/01/18 02:39:22;;;;;;;4.00;2.70;;;;;;;3.62;100.00;98837.56;5025889;28;20213;-70
2021/01/18 02:41:56;;;;;;;4.97;2.77;;;;;;;3.67;100.00;98835.31;5031660;28;20692;-71
2021/01/18 02:44:25;;;;;;;8.20;3.03;;;;;;;3.62;100.00;98839.34;5032597;28;20743;-70
2021/01/18 02:46:53;;;;;;;8.20;3.33;;;;;;;3.65;100.00;98833.81;5032019;28;20216;-71
2021/01/18 02:49:21;;;;;;;5.27;2.90;;;;;;;3.64;100.00;98837.41;5031653;28;20293;-70
2021/01/18 02:51:52;;;;;;;6.97;3.20;;;;;;;3.76;100.00;98833.69;5032656;28;20215;-72
2021/01/18 02:54:19;;;;;;;6.00;3.67;;;;;;;3.69;100.00;98825.47;5031102;28;20205;-70
2021/01/18 02:56:51;;;;;;;8.23;4.10;;;;;;;3.65;100.00;98824.06;5032359;28;20215;-71
2021/01/18 02:59:19;;;;;;;7.47;3.70;;;;;;;3.81;100.00;98819.06;5032050;28;20210;-71
2021/01/18 03:02:18;;;;;;;9.17;4.03;;;;;;;3.60;100.00;98823.66;5031555;28;20208;-71
2021/01/18 03:05:04;;;;;;;6.30;4.03;;;;;;;3.71;100.00;98812.16;5029933;28;20230;-72
2021/01/18 03:07:37;;;;;;;8.07;3.87;;;;;;;3.63;100.00;98814.63;5030857;28;20210;-71
2021/01/18 03:10:06;;;;;;;8.27;4.17;;;;;;;3.52;100.00;98817.41;5030351;28;20226;-70
2021/01/18 03:12:39;;;;;;;8.97;4.80;;;;;;;3.69;100.00;98824.63;5031881;28;20214;-71
2021/01/18 03:15:10;;;;;;;7.80;4.67;;;;;;;3.70;100.00;98826.28;5030877;28;20222;-71
2021/01/18 03:17:39;;;;;;;11.37;5.37;;;;;;;3.84;100.00;98821.44;5031433;28;20216;-70
2021/01/18 03:20:08;;;;;;;9.93;4.30;;;;;;;3.71;100.00;98825.34;5031261;28;20198;-70
2021/01/18 03:22:35;;;;;;;9.33;4.20;;;;;;;3.74;100.00;98825.03;5030683;28;20203;-70
2021/01/18 03:25:03;;;;;;;8.27;4.10;;;;;;;3.72;100.00;98825.19;5031124;28;20226;-70
2021/01/18 03:27:30;;;;;;;11.70;5.30;;;;;;;3.76;100.00;98818.66;5031614;28;20260;-70
2021/01/18 03:29:56;;;;;;;10.50;4.40;;;;;;;3.77;100.00;98822.97;5028353;28;20203;-71
2021/01/18 03:32:23;;;;;;;8.67;4.13;;;;;;;3.76;100.00;98825.75;5032048;28;20213;-70
2021/01/18 03:34:50;;;;;;;6.87;4.13;;;;;;;3.77;100.00;98822.16;5031664;28;20250;-70
2021/01/18 03:37:17;;;;;;;4.80;3.53;;;;;;;3.71;100.00;98822.69;5030615;28;20202;-71
2021/01/18 03:39:45;;;;;;;9.07;4.07;;;;;;;3.81;100.00;98821.72;5031234;28;20225;-70
2021/01/18 03:42:11;;;;;;;7.13;4.30;;;;;;;3.67;100.00;98832.69;5031472;28;20618;-70
2021/01/18 03:44:38;;;;;;;9.40;4.70;;;;;;;3.76;100.00;98821.31;5031135;28;20235;-71
2021/01/18 03:47:07;;;;;;;7.73;3.90;;;;;;;3.57;100.00;98826.59;5029981;28;20211;-70
2021/01/18 03:49:34;;;;;;;10.77;4.93;;;;;;;3.79;100.00;98818.41;5031083;28;20663;-71
2021/01/18 03:52:00;;;;;;;7.33;4.00;;;;;;;3.81;100.00;98819.06;5028234;28;20194;-70
2021/01/18 03:54:27;;;;;;;10.17;5.30;;;;;;;3.75;100.00;98818.78;5029464;28;20302;-71
2021/01/18 03:56:55;;;;;;;9.50;4.10;;;;;;;3.79;100.00;98809.63;5030138;28;20210;-71
2021/01/18 03:59:22;;;;;;;6.70;4.60;;;;;;;3.67;100.00;98808.09;5031216;28;20203;-71
2021/01/18 04:01:48;;;;;;;10.90;4.67;;;;;;;3.56;100.00;98819.63;5030322;28;20214;-71
2021/01/18 04:04:15;;;;;;;11.47;4.57;;;;;;;3.69;100.00;98816.72;5032014;28;20231;-71
2021/01/18 04:06:42;;;;;;;7.13;4.43;;;;;;;3.75;100.00;98821.44;5030385;28;20213;-72
2021/01/18 04:09:09;;;;;;;7.27;4.03;;;;;;;3.75;100.00;98817.00;5024271;28;20241;-71
2021/01/18 04:11:35;;;;;;;10.43;4.73;;;;;;;3.52;100.00;98820.88;5030306;28;20229;-71
2021/01/18 04:14:03;;;;;;;10.03;4.13;;;;;;;3.70;100.00;98816.56;5028858;28;20206;-71
2021/01/18 04:16:30;;;;;;;9.57;4.33;;;;;;;3.62;100.00;98823.53;5029885;28;20588;-71
2021/01/18 04:18:57;;;;;;;8.73;4.80;;;;;;;3.60;100.00;98826.28;5030641;28;20227;-70
2021/01/18 04:21:24;;;;;;;8.93;4.83;;;;;;;3.61;100.00;98829.78;5029141;28;20199;-71
2021/01/18 04:23:51;;;;;;;10.63;4.50;;;;;;;3.57;100.00;98834.50;5030782;28;20217;-69
2021/01/18 04:26:17;;;;;;;9.17;4.57;;;;;;;3.60;100.00;98836.84;5030291;28;20622;-71
2021/01/18 04:28:44;;;;;;;8.87;5.27;;;;;;;3.58;100.00;98838.81;5030226;28;20207;-71
2021/01/18 04:31:12;;;;;;;11.73;4.83;;;;;;;3.51;100.00;98842.13;5029941;28;20216;-71
2021/01/18 04:33:39;;;;;;;7.73;4.13;;;;;;;3.53;100.00;98846.28;5027215;28;20218;-71
2021/01/18 04:36:06;;;;;;;9.80;4.73;;;;;;;3.50;100.00;98851.03;5028234;28;20314;-73
2021/01/18 04:38:33;;;;;;;9.90;4.67;;;;;;;3.49;100.00;98851.97;5030198;28;20203;-70
2021/01/18 04:40:59;;;;;;;8.53;4.40;;;;;;;3.35;100.00;98855.81;5030288;28;20210;-71
2021/01/18 04:43:27;;;;;;;11.13;4.50;;;;;;;3.51;100.00;98855.31;5030477;28;20207;-71
2021/01/18 04:45:54;;;;;;;6.50;3.93;;;;;;;3.37;100.00;98853.06;5027967;28;20237;-69
2021/01/18 04:48:22;;;;;;;12.13;4.87;;;;;;;3.41;100.00;98857.09;5028868;28;20202;-71
2021/01/18 04:50:49;;;;;;;11.17;4.70;;;;;;;3.45;100.00;98856.69;5030428;28;20212;-71
2021/01/18 04:53:17;;;;;;;9.57;4.27;;;;;;;3.29;100.00;98848.47;5029516;28;20218;-72
2021/01/18 04:56:03;;;;;;;9.83;4.40;;;;;;;3.35;100.00;98853.19;5030485;28;20218;-71
2021/01/18 04:58:30;;;;;;;7.27;4.00;;;;;;;3.31;100.00;98853.63;5027337;28;20598;-72
2021/01/18 05:01:00;;;;;;;6.97;3.93;;;;;;;3.20;100.00;98853.72;5029259;28;20596;-71
2021/01/18 05:03:27;;;;;;;9.27;4.17;;;;;;;3.05;100.00;98850.59;5029008;28;20205;-70
2021/01/18 05:06:30;;;;;;;8.17;3.47;;;;;;;2.97;100.00;98857.50;5032569;28;20585;-71
2021/01/18 05:09:20;;;;;;;7.30;3.93;;;;;;;2.82;100.00;98864.09;5034113;28;20199;-70
2021/01/18 05:11:48;;;;;;;7.70;4.10;;;;;;;2.66;100.00;98867.25;5033428;28;20215;-71
2021/01/18 05:14:16;;;;;;;7.90;3.90;;;;;;;2.61;100.00;98860.69;5034328;28;20253;-70
2021/01/18 05:16:46;;;;;;;7.77;3.90;;;;;;;2.59;100.00;98863.44;5033388;28;20679;-70
2021/01/18 05:19:15;;;;;;;9.30;4.07;;;;;;;2.47;100.00;98869.75;5032924;28;20229;-71
2021/01/18 05:21:42;;;;;;;9.10;3.93;;;;;;;2.46;100.00;98872.50;5032934;28;20539;-70
2021/01/18 05:24:10;;;;;;;6.80;4.30;;;;;;;2.38;100.00;98881.06;5032984;28;20218;-70
2021/01/18 05:26:37;;;;;;;6.07;3.57;;;;;;;2.28;100.00;98879.31;5033900;28;20206;-71
2021/01/18 05:29:04;;;;;;;5.83;3.70;;;;;;;2.22;100.00;98885.09;5033267;28;20209;-71
2021/01/18 05:31:33;;;;;;;10.70;3.80;;;;;;;2.26;100.00;98889.16;5032457;28;20206;-70
2021/01/18 05:34:01;;;;;;;7.97;4.53;;;;;;;2.22;100.00;98885.94;5033418;28;20264;-70
2021/01/18 05:36:37;;;;;;;9.37;4.80;;;;;;;2.14;100.00;98888.38;5029868;28;20226;-70
2021/01/18 05:39:12;;;;;;;8.57;4.07;;;;;;;2.08;100.00;98891.50;5033836;28;20197;-70
2021/01/18 05:41:39;;;;;;;7.77;3.77;;;;;;;2.06;100.00;98890.81;5033348;28;20218;-71
2021/01/18 05:44:07;;;;;;;10.43;4.27;;;;;;;2.06;100.00;98898.72;5032557;28;20202;-70
2021/01/18 05:46:34;;;;;;;13.13;5.00;;;;;;;2.10;100.00;98900.13;5030427;28;20203;-70
2021/01/18 05:49:09;;;;;;;7.97;4.70;;;;;;;2.16;100.00;98904.88;5033981;28;20202;-71
2021/01/18 05:51:37;;;;;;;8.90;4.63;;;;;;;2.24;100.00;98899.00;5032949;28;20252;-70
2021/01/18 05:54:06;;;;;;;8.63;3.93;;;;;;;2.20;100.00;98905.47;5033987;28;20221;-71
2021/01/18 05:56:41;;;;;;;8.23;4.00;;;;;;;2.29;100.00;98909.97;5033028;28;20260;-71
2021/01/18 05:59:17;;;;;;;9.63;3.87;;;;;;;2.29;100.00;98907.34;5031561;28;20205;-71
2021/01/18 06:01:44;;;;;;;7.33;4.47;;;;;;;2.25;100.00;98908.56;5031549;28;20213;-71
2021/01/18 06:04:12;;;;;;;10.47;4.97;;;;;;;2.22;100.00;98917.53;5033194;28;20217;-71
2021/01/18 06:06:44;;;;;;;12.20;4.73;;;;;;;2.27;100.00;98919.78;5031758;28;20218;-73
2021/01/18 06:09:11;;;;;;;10.23;4.00;;;;;;;2.30;100.00;98930.06;5033214;28;20229;-73
2021/01/18 06:11:38;;;;;;;9.00;4.57;;;;;;;2.41;100.00;98927.38;5031776;28;20207;-74
2021/01/18 06:14:06;;;;;;;10.97;4.60;;;;;;;2.43;100.00;98928.06;5033178;28;20209;-71
2021/01/18 06:16:33;;;;;;;12.90;4.93;;;;;;;2.45;100.00;98924.34;5030489;28;20222;-72
2021/01/18 06:19:06;;;;;;;12.87;4.67;;;;;;;2.55;100.00;98930.53;5031792;28;20667;-74
2021/01/18 06:21:51;;;;;;;10.27;4.47;;;;;;;2.56;100.00;98934.84;5031572;28;20298;-72
2021/01/18 06:24:20;;;;;;;13.70;4.80;;;;;;;2.54;100.00;98931.50;5028629;28;20304;-73
2021/01/18 06:26:47;;;;;;;8.30;4.30;;;;;;;2.48;100.00;98932.00;5032252;28;20202;-75
2021/01/18 06:29:37;;;;;;;9.20;4.37;;;;;;;2.46;100.00;98933.94;5033108;28;20314;-72
2021/01/18 06:32:05;;;;;;;11.20;3.87;;;;;;;2.51;100.00;98939.66;5037708;28;20206;-80
2021/01/18 06:34:32;;;;;;;7.30;4.57;;;;;;;2.56;100.00;98937.50;5034582;28;20225;-72
2021/01/18 06:37:00;;;;;;;9.63;4.67;;;;;;;2.59;100.00;98942.47;5031299;28;20202;-77
2021/01/18 06:39:29;;;;;;;10.53;4.80;;;;;;;2.58;100.00;98943.44;5032436;28;20202;-75
2021/01/18 06:42:01;;;;;;;11.97;4.73;;;;;;;2.58;100.00;98947.88;5032263;28;20209;-77
2021/01/18 06:44:38;;;;;;;11.90;4.40;;;;;;;2.60;100.00;98945.97;5038089;28;20314;-73
2021/01/18 06:47:29;;;;;;;17.30;5.03;;;;;;;2.63;100.00;98948.31;5029929;28;20675;-75
2021/01/18 06:49:57;;;;;;;9.13;5.33;;;;;;;2.57;100.00;98946.22;5031501;28;20218;-74
2021/01/18 06:52:26;;;;;;;9.50;5.13;;;;;;;2.64;100.00;98942.94;5032003;28;20544;-74
2021/01/18 06:55:00;;;;;;;12.77;5.50;;;;;;;2.72;100.00;98944.91;5033393;28;20300;-75
2021/01/18 06:57:55;;;;;;;12.13;4.27;;;;;;;2.70;100.00;98945.03;5027798;28;20210;-72
2021/01/18 07:00:22;;;;;;;10.77;4.37;;;;;;;2.61;100.00;98945.84;5027233;28;20207;-70
2021/01/18 07:02:57;;;;;;;14.60;4.40;;;;;;;2.72;100.00;98958.94;5030680;28;20210;-71
2021/01/18 07:05:37;;;;;;;8.83;4.63;;;;;;;2.73;100.00;98957.97;5031960;28;20282;-74
2021/01/18 07:08:13;;;;;;;10.83;4.90;;;;;;;2.75;100.00;98961.31;5032072;28;20276;-71
2021/01/18 07:10:42;;;;;;;11.43;4.80;;;;;;;2.82;100.00;98961.63;5031046;28;20202;-72
2021/01/18 07:13:09;;;;;;;8.00;3.90;;;;;;;2.88;100.00;98964.59;5030909;28;20659;-79
2021/01/18 07:15:40;;;;;;;7.60;4.00;;;;;;;2.90;100.00;98956.56;5032488;28;20293;-74
2021/01/18 07:18:09;;;;;;;8.03;4.03;;;;;;;2.90;100.00;98973.19;5031422;28;20202;-75
2021/01/18 07:20:41;;;;;;;10.50;3.73;;;;;;;3.08;100.00;98973.44;5030843;28;20210;-74
2021/01/18 07:23:28;;;;;;;8.03;4.77;;;;;;;3.03;100.00;98975.63;5031853;28;20206;-73
2021/01/18 07:26:45;;;;;;;6.47;3.80;;;;;;;3.06;100.00;98972.75;5030826;28;20236;-72
2021/01/18 07:29:15;;;;;;;8.07;5.03;;;;;;;3.17;100.00;98970.00;5030870;28;20738;-72
2021/01/18 07:31:45;;;;;;;9.70;4.97;;;;;;;3.21;100.00;98976.72;5030864;28;20211;-71
2021/01/18 07:34:17;;;;;;;9.67;4.23;;;;;;;3.25;100.00;98981.56;5030612;28;20209;-70
2021/01/18 07:36:44;;;;;;;10.67;4.17;;;;;;;3.32;100.00;98990.66;5029561;28;20294;-70
2021/01/18 07:39:32;;;;;;;10.33;4.43;;;;;;;3.44;100.00;98994.84;5029578;28;20566;-70
2021/01/18 07:41:59;;;;;;;13.13;4.53;;;;;;;3.51;100.00;98990.72;5029825;28;20667;-71
2021/01/18 07:44:38;;;;;;;10.30;4.30;;;;;;;3.46;100.00;99006.09;5030813;28;20247;-70
2021/01/18 07:47:06;;;;;;;9.90;4.33;;;;;;;3.52;100.00;98991.56;5029117;28;20558;-70
2021/01/18 07:49:44;;;;;;;13.67;4.13;;;;;;;3.44;100.00;99008.06;5031544;28;20218;-71
2021/01/18 07:52:16;;;;;;;7.57;4.13;;;;;;;3.31;100.00;99003.97;5031121;28;20213;-70
2021/01/18 07:54:43;;;;;;;9.93;4.10;;;;;;;3.54;100.00;99006.28;5026664;28;20219;-69
2021/01/18 07:57:34;;;;;;;12.40;4.30;;;;;;;3.63;100.00;99007.28;5030551;28;20241;-69
2021/01/18 08:00:32;;;;;;;8.60;4.03;;;;;;;3.31;100.00;99022.44;5029188;28;20229;-70
2021/01/18 08:03:23;;;;;;;10.07;3.47;;;;;;;3.31;100.00;99015.34;5028456;28;20206;-71
2021/01/18 08:06:03;;;;;;;9.43;3.70;;;;;;;3.48;100.00;99027.94;5029257;28;20234;-71
2021/01/18 08:08:31;;;;;;;10.47;4.00;;;;;;;3.23;100.00;99025.72;5028523;28;20315;-70
2021/01/18 08:11:00;;;;;;;9.00;3.27;;;;;;;3.38;100.00;99026.19;5030993;28;20209;-70
2021/01/18 08:13:38;;;;;;;7.13;3.53;;;;;;;3.56;100.00;99025.44;5029985;28;20229;-70
2021/01/18 08:16:19;;;;;;;7.40;3.23;;;;;;;3.60;100.00;99026.06;5030744;28;20709;-72
2021/01/18 08:18:50;;;;;;;7.87;2.90;;;;;;;3.67;100.00;99022.72;5034591;28;20207;-71
2021/01/18 08:21:45;;;;;;;5.70;3.80;;;;;;;3.73;100.00;99010.81;5033925;28;20572;-71
2021/01/18 08:24:14;;;;;;;6.67;3.30;;;;;;;3.76;100.00;99016.63;5031154;28;20270;-72
2021/01/18 08:26:57;;;;;;;8.17;3.90;;;;;;;4.11;100.00;99014.38;5029753;28;20215;-71
2021/01/18 08:29:41;;;;;;;6.80;3.07;;;;;;;3.90;100.00;99020.72;5028140;28;20206;-71
2021/01/18 08:32:36;;;;;;;7.33;2.83;;;;;;;4.10;100.00;99017.16;5034802;28;20275;-71
2021/01/18 08:35:06;;;;;;;13.87;3.30;;;;;;;4.15;100.00;99022.84;5030489;28;20227;-71
2021/01/18 08:37:33;;;;;;;7.83;2.60;;;;;;;4.25;100.00;99021.91;5029192;28;20203;-70
2021/01/18 08:40:01;;;;;;;5.27;2.90;;;;;;;4.08;100.00;99027.88;5029021;28;20215;-71
2021/01/18 08:42:30;;;;;;;6.10;2.40;;;;;;;4.59;100.00;99023.22;5025977;28;20256;-71
2021/01/18 08:44:59;;;;;;;6.63;3.00;;;;;;;4.42;100.00;99026.50;5028365;28;20245;-71
2021/01/18 08:47:39;;;;;;;4.87;3.10;;;;;;;4.49;100.00;99017.09;5026285;28;20311;-70
2021/01/18 08:50:24;;;;;;;4.97;2.50;;;;;;;4.67;100.00;99015.41;5029313;28;20267;-70
2021/01/18 08:52:52;;;;;;;5.37;2.50;;;;;;;4.75;100.00;99018.19;5024156;28;20632;-70
2021/01/18 08:55:40;;;;;;;5.93;2.70;;;;;;;5.01;100.00;99013.97;5029632;28;20230;-71
2021/01/18 08:58:08;;;;;;;4.43;2.50;;;;;;;4.73;100.00;99025.41;5030348;28;20761;-71
2021/01/18 09:00:43;;;;;;;5.77;2.70;;;;;;;4.85;100.00;99028.75;5027955;28;20810;-71
2021/01/18 09:03:11;;;;;;;3.53;1.90;;;;;;;4.62;100.00;99027.38;5025713;28;20212;-71
2021/01/18 09:05:38;;;;;;;6.80;2.40;;;;;;;4.98;100.00;99024.84;5027215;28;20243;-70
2021/01/18 09:08:08;;;;;;;6.20;2.43;;;;;;;4.73;100.00;99029.88;5030722;28;20206;-70
2021/01/18 09:10:35;;;;;;;4.73;2.43;;;;;;;4.93;100.00;99032.34;5029473;28;20291;-71
2021/01/18 09:13:04;;;;;;;5.10;2.40;;;;;;;4.69;100.00;99031.13;5029535;28;20208;-69
2021/01/18 09:15:33;;;;;;;9.30;2.63;;;;;;;4.78;100.00;99022.38;5029115;28;20222;-70
2021/01/18 09:18:09;;;;;;;6.20;2.23;;;;;;;4.86;100.00;99025.13;5030432;28;20298;-70
2021/01/18 09:20:39;;;;;;;5.73;2.50;;;;;;;4.71;100.00;99021.22;5028588;28;20206;-71
2021/01/18 09:23:06;;;;;;;9.57;2.60;;;;;;;4.62;100.00;99030.03;5026790;28;20210;-70
2021/01/18 09:25:34;;;;;;;2.97;1.80;;;;;;;4.92;100.00;99027.22;5029043;28;20264;-70
2021/01/18 09:28:06;;;;;;;4.83;2.33;;;;;;;4.80;100.00;99026.53;5029084;28;20235;-69
2021/01/18 09:30:34;;;;;;;5.57;2.53;;;;;;;5.19;100.00;99033.44;5027540;28;20689;-77
2021/01/18 09:33:03;;;;;;;3.57;2.00;;;;;;;5.60;100.00;99027.78;5028655;28;20224;-74
2021/01/18 09:35:33;;;;;;;4.83;2.33;;;;;;;5.40;100.00;99036.75;5029304;28;20233;-71
2021/01/18 09:38:00;;;;;;;5.10;2.13;;;;;;;5.64;100.00;99033.59;5028464;28;20198;-77
2021/01/18 09:40:27;;;;;;;3.47;2.40;;;;;;;5.26;100.00;99039.84;5031124;28;20254;-73
2021/01/18 09:42:56;;;;;;;2.73;1.80;;;;;;;5.32;100.00;99033.13;5030389;28;20205;-73
2021/01/18 09:45:25;;;;;;;3.53;2.23;;;;;;;5.73;100.00;99032.72;5028392;28;20298;-72
2021/01/18 09:47:54;;;;;;;6.30;2.07;;;;;;;5.35;100.00;99033.69;5030372;28;20210;-71
2021/01/18 09:50:23;;;;;;;7.77;2.17;;;;;;;5.68;100.00;99029.69;5028589;28;20665;-71
2021/01/18 09:52:50;;;;;;;5.37;2.60;;;;;;;5.69;100.00;99034.81;5032148;28;20736;-72
2021/01/18 09:55:19;;;;;;;3.50;2.23;;;;;;;5.34;100.00;99033.84;5033129;28;20225;-71
2021/01/18 09:57:50;;;;;;;4.57;1.90;;;;;;;5.50;100.00;99029.59;5033426;28;20209;-71
2021/01/18 10:00:21;;;;;;;6.30;2.27;;;;;;;5.44;100.00;99021.41;5032424;28;20200;-71
2021/01/18 10:02:50;;;;;;;5.90;1.80;;;;;;;5.45;100.00;99031.84;5033639;28;20210;-71
2021/01/18 10:05:24;;;;;;;5.07;2.10;;;;;;;5.14;100.00;99019.78;5030153;28;20247;-70
2021/01/18 10:07:53;;;;;;;3.73;2.23;;;;;;;4.98;100.00;99024.84;5032432;28;20207;-74
2021/01/18 10:10:20;;;;;;;5.10;1.80;;;;;;;5.50;100.00;99020.81;5033371;28;20204;-71
2021/01/18 10:12:52;;;;;;;3.77;1.93;;;;;;;5.23;100.00;99011.00;5033583;28;20581;-71
2021/01/18 10:15:27;;;;;;;2.30;1.60;;;;;;;5.60;100.00;99016.31;5032212;28;20233;-73
2021/01/18 10:17:55;;;;;;;4.33;2.00;;;;;;;5.76;100.00;99001.50;5033095;28;20202;-72
2021/01/18 10:20:24;;;;;;;5.50;1.93;;;;;;;5.37;100.00;98999.97;5032577;28;20212;-71
2021/01/18 10:22:51;;;;;;;2.07;1.67;;;;;;;5.51;100.00;98996.00;5030277;28;20225;-72
2021/01/18 10:25:18;;;;;;;3.53;2.10;;;;;;;5.53;100.00;98991.44;5031570;28;20236;-71
2021/01/18 10:27:53;;;;;;;6.07;2.57;;;;;;;5.70;100.00;98985.34;5029652;28;20210;-71
2021/01/18 10:30:22;;;;;;;3.57;2.30;;;;;;;5.77;100.00;98984.63;5028791;28;20217;-71
2021/01/18 10:32:51;;;;;;;3.30;2.30;;;;;;;5.86;100.00;98985.56;5029999;28;20205;-71
2021/01/18 10:35:28;;;;;;;6.53;1.83;;;;;;;5.96;100.00;98989.00;5028436;28;20217;-72
2021/01/18 10:38:11;;;;;;;3.93;2.30;;;;;;;6.14;100.00;98982.75;5033315;28;20212;-71
2021/01/18 10:40:38;;;;;;;5.20;2.20;;;;;;;5.55;100.00;98985.00;5030489;28;20206;-71
2021/01/18 10:43:06;;;;;;;3.80;2.00;;;;;;;5.78;100.00;98980.97;5030911;28;20202;-72
2021/01/18 10:45:38;;;;;;;4.00;1.90;;;;;;;6.29;100.00;98981.25;5031675;28;20233;-72
2021/01/18 10:48:06;;;;;;;4.70;2.03;;;;;;;6.23;100.00;98976.56;5030549;28;20218;-72
2021/01/18 10:50:34;;;;;;;5.13;2.10;;;;;;;5.95;100.00;98976.75;5033113;28;20202;-73
2021/01/18 10:53:03;;;;;;;3.47;2.00;;;;;;;6.33;100.00;98981.78;5031768;28;20195;-72
2021/01/18 10:55:30;;;;;;;4.20;2.27;;;;;;;6.26;100.00;98988.69;5033236;28;20226;-73
2021/01/18 10:57:56;;;;;;;6.30;2.40;;;;;;;6.51;100.00;98993.22;5025830;28;20267;-73
2021/01/18 11:00:26;;;;;;;4.23;2.30;;;;;;;6.09;100.00;98992.97;5033587;28;20249;-75
2021/01/18 11:02:55;;;;;;;3.80;2.20;;;;;;;5.90;100.00;98985.13;5031421;28;20571;-73
2021/01/18 11:05:38;;;;;;;2.50;1.90;;;;;;;6.25;100.00;98985.19;5033312;28;20222;-70
2021/01/18 11:08:07;;;;;;;2.50;1.80;;;;;;;6.09;100.00;98985.00;5031764;28;20205;-77
2021/01/18 11:10:37;;;;;;;3.67;2.23;;;;;;;6.05;100.00;98988.13;5038429;28;20202;-77
2021/01/18 11:13:08;;;;;;;2.43;2.03;;;;;;;6.30;100.00;98977.59;5041721;28;20210;-77
2021/01/18 11:15:38;;;;;;;2.53;1.90;;;;;;;6.42;100.00;98984.38;5042461;28;20234;-81
2021/01/18 11:18:06;;;;;;;4.93;2.50;;;;;;;6.18;100.00;98983.28;5041573;28;20207;-80
2021/01/18 11:20:34;;;;;;;5.97;2.10;;;;;;;6.16;100.00;98972.84;5040960;28;20682;-83
2021/01/18 11:23:02;;;;;;;4.20;2.20;;;;;;;6.02;100.00;98976.00;5036298;28;20209;-78
2021/01/18 11:25:30;;;;;;;4.97;2.20;;;;;;;6.00;100.00;98963.88;5038407;28;20230;-75
2021/01/18 11:28:10;;;;;;;3.27;2.17;;;;;;;6.62;100.00;98963.81;5035971;28;20206;-76
2021/01/18 11:30:37;;;;;;;6.10;2.27;;;;;;;6.42;100.00;98967.63;5035694;28;20619;-78
2021/01/18 11:33:04;;;;;;;3.30;2.30;;;;;;;6.46;100.00;98961.03;5030445;28;20202;-73
2021/01/18 11:35:31;;;;;;;2.67;1.77;;;;;;;6.87;100.00;98961.22;5032105;28;20220;-76
2021/01/18 11:37:58;;;;;;;6.53;2.20;;;;;;;6.78;100.00;98958.66;5032991;28;20198;-75
2021/01/18 11:40:26;;;;;;;3.27;1.87;;;;;;;6.89;100.00;98967.19;5032927;28;20198;-80
2021/01/18 11:42:52;;;;;;;3.67;2.00;;;;;;;6.59;100.00;98970.25;5029638;28;20271;-75
2021/01/18 11:45:19;;;;;;;2.07;1.70;;;;;;;6.93;100.00;98963.25;5033280;28;20444;-76
2021/01/18 11:47:46;;;;;;;3.50;1.73;;;;;;;6.57;100.00;98961.66;5034110;28;20213;-74
2021/01/18 11:50:13;;;;;;;4.43;1.80;;;;;;;6.71;100.00;98958.41;5032920;28;20203;-74